WBKW

Tawau Airport

Tawau, Malaysia
TAF WBKW 182300Z 1900/2000 03010KT 9999 FEW017
Issued Valid From Valid To
Jan-18 @ 23:00 UTC
(3 hours ago)
Jan-19 @ 00:00 UTC
(2 hours ago)
Jan-20 @ 00:00 UTC
(in 22 hours)
Jan-19 @ 00:00 to Jan-20 @ 00:00
TAF WBKW 182300Z 1900/2000 03010KT 9999 FEW017
Wind Visibility Clouds
30° at 10 knots 10,000+ meters
  • Few at 1,700' AGL
TAF WBKW 182300Z 1900/2000 03010KT 9999 FEW017
Issued Jan-18 @ 23:00 UTC
(3 hours ago)
Valid From Jan-19 @ 00:00 UTC
(2 hours ago)
Valid To Jan-20 @ 00:00 UTC
(in 22 hours)
Jan-19 @ 00:00 - Jan-20 @ 00:00
Wind Visibility
30° at 10 knots 10,000+ meters
Clouds
  • Few at 1,700' AGL